Time;durP1;ratioP1;P1;durP2;ratioP2;P2;SDS_P1;SDS_P2;PMS_P1;PMS_P2;Temp;Humidity;BMP_temperature;BMP_pressure;BME280_temperature;BME280_humidity;BME280_pressure;Samples;Min_cycle;Max_cycle;Signal;HPM_P1;HPM_P2
2023/08/05 00:01:12;;;;;;;5.90;3.40;;;12.20;99.90;;;;;;5065997;28;20220;-83
2023/08/05 00:03:40;;;;;;;7.73;3.27;;;12.20;99.90;;;;;;5061115;28;20227;-81
2023/08/05 00:06:07;;;;;;;7.83;3.40;;;12.10;99.90;;;;;;5061009;28;20222;-81
2023/08/05 00:08:35;;;;;;;6.97;3.47;;;12.10;99.90;;;;;;5064827;28;20236;-81
2023/08/05 00:11:02;;;;;;;6.93;3.40;;;12.10;99.90;;;;;;5065852;28;20223;-82
2023/08/05 00:13:34;;;;;;;7.00;3.67;;;12.00;99.90;;;;;;5072625;28;20228;-82
2023/08/05 00:16:01;;;;;;;6.87;3.33;;;12.10;99.90;;;;;;5050290;28;20223;-82
2023/08/05 00:18:27;;;;;;;7.37;3.23;;;12.00;99.90;;;;;;5045439;28;20230;-82
2023/08/05 00:20:54;;;;;;;5.80;3.43;;;12.00;99.90;;;;;;5064767;28;20223;-84
2023/08/05 00:23:21;;;;;;;8.70;3.70;;;12.00;99.90;;;;;;5045256;28;20223;-81
2023/08/05 00:25:49;;;;;;;7.17;3.33;;;12.00;99.90;;;;;;5068442;28;20223;-81
2023/08/05 00:28:16;;;;;;;6.97;3.60;;;11.90;99.90;;;;;;5062457;28;20286;-82
2023/08/05 00:30:43;;;;;;;6.67;3.80;;;11.90;99.90;;;;;;5050218;28;20246;-82
2023/08/05 00:33:09;;;;;;;7.20;3.13;;;11.90;99.90;;;;;;5045741;28;20227;-83
2023/08/05 00:35:36;;;;;;;7.30;3.63;;;11.90;99.90;;;;;;5062333;28;20883;-82
2023/08/05 00:38:03;;;;;;;6.90;3.73;;;11.90;99.90;;;;;;5067542;28;20318;-82
2023/08/05 00:40:30;;;;;;;6.83;3.50;;;12.00;99.90;;;;;;5066653;28;20293;-82
2023/08/05 00:42:58;;;;;;;7.27;3.70;;;12.00;99.90;;;;;;5055539;28;20730;-82
2023/08/05 00:45:24;;;;;;;9.23;4.07;;;12.00;99.90;;;;;;5072944;28;20656;-82
2023/08/05 00:47:52;;;;;;;6.30;3.70;;;12.10;99.90;;;;;;5045138;28;20319;-83
2023/08/05 00:50:19;;;;;;;10.00;3.73;;;12.20;99.90;;;;;;5063922;28;21167;-82
2023/08/05 00:52:46;;;;;;;8.47;3.93;;;12.20;99.90;;;;;;5068144;28;20270;-82
2023/08/05 00:55:12;;;;;;;8.13;3.80;;;12.30;99.90;;;;;;5048518;28;21571;-84
2023/08/05 00:57:42;;;;;;;8.87;3.40;;;12.40;99.90;;;;;;5047343;28;20378;-83
2023/08/05 01:00:11;;;;;;;5.60;3.20;;;12.40;99.90;;;;;;5050359;28;20234;-82
2023/08/05 01:02:38;;;;;;;6.63;3.47;;;12.50;99.90;;;;;;5062434;28;21053;-82
2023/08/05 01:05:05;;;;;;;9.10;3.67;;;12.50;99.90;;;;;;5049516;28;20740;-84
2023/08/05 01:07:33;;;;;;;6.83;3.47;;;12.60;99.90;;;;;;5053120;28;20816;-82
2023/08/05 01:09:59;;;;;;;6.47;4.00;;;12.70;99.90;;;;;;5054074;28;20957;-82
2023/08/05 01:12:26;;;;;;;7.40;3.40;;;12.70;99.90;;;;;;5071135;28;20239;-84
2023/08/05 01:14:53;;;;;;;4.70;3.40;;;12.70;99.90;;;;;;5051396;28;20316;-82
2023/08/05 01:17:21;;;;;;;9.23;3.97;;;12.80;99.90;;;;;;5063851;28;21076;-81
2023/08/05 01:19:48;;;;;;;5.73;3.97;;;12.80;99.90;;;;;;5052502;28;20294;-83
2023/08/05 01:22:20;;;;;;;7.70;4.10;;;12.90;99.90;;;;;;5045276;28;20693;-83
2023/08/05 01:24:53;;;;;;;6.03;3.90;;;12.90;99.90;;;;;;5070535;28;20894;-82
2023/08/05 01:27:23;;;;;;;8.57;4.03;;;13.00;99.90;;;;;;5066595;28;20627;-82
2023/08/05 01:29:50;;;;;;;8.43;3.83;;;13.00;99.90;;;;;;5069035;28;20285;-84
2023/08/05 01:32:18;;;;;;;6.63;3.63;;;13.00;99.90;;;;;;5053217;28;20858;-84
2023/08/05 01:34:48;;;;;;;10.13;4.63;;;13.10;99.90;;;;;;5052707;28;20318;-82
2023/08/05 01:37:15;;;;;;;8.43;3.80;;;13.10;99.90;;;;;;5052548;28;20273;-82
2023/08/05 01:39:42;;;;;;;10.30;3.97;;;13.10;99.90;;;;;;5051790;28;20301;-82
2023/08/05 01:42:09;;;;;;;10.07;4.50;;;13.20;99.90;;;;;;5054478;28;20227;-82
2023/08/05 01:44:38;;;;;;;8.27;3.77;;;13.20;99.90;;;;;;5047755;28;20246;-83
2023/08/05 01:47:05;;;;;;;9.07;3.93;;;13.20;99.90;;;;;;5074068;28;20264;-82
2023/08/05 01:49:32;;;;;;;8.60;4.07;;;13.30;99.90;;;;;;5068859;28;20295;-83
2023/08/05 01:51:59;;;;;;;10.20;4.23;;;13.30;99.90;;;;;;5048727;28;20734;-82
2023/08/05 01:54:26;;;;;;;6.13;4.33;;;13.30;99.90;;;;;;5065626;28;20235;-84
2023/08/05 01:56:53;;;;;;;9.80;3.83;;;13.30;99.90;;;;;;5058066;28;20231;-84
2023/08/05 01:59:19;;;;;;;8.23;4.30;;;13.30;99.90;;;;;;5053129;28;20222;-83
2023/08/05 02:01:48;;;;;;;6.70;3.73;;;13.40;99.90;;;;;;5053684;28;20217;-82
2023/08/05 02:04:15;;;;;;;8.60;3.77;;;13.40;99.90;;;;;;5048224;28;20247;-82
2023/08/05 02:06:43;;;;;;;7.20;4.00;;;13.40;99.90;;;;;;5053662;28;20965;-84
2023/08/05 02:09:10;;;;;;;6.30;4.00;;;13.40;99.90;;;;;;5042090;28;20595;-83
2023/08/05 02:11:36;;;;;;;6.03;3.80;;;13.40;99.90;;;;;;5068711;28;20220;-82
2023/08/05 02:14:03;;;;;;;8.40;3.83;;;13.40;99.90;;;;;;5053414;28;20250;-82
2023/08/05 02:16:33;;;;;;;7.70;3.93;;;13.30;99.90;;;;;;5052263;28;20255;-82
2023/08/05 02:19:02;;;;;;;8.80;4.40;;;13.30;99.90;;;;;;5069819;28;20259;-82
2023/08/05 02:21:29;;;;;;;11.73;4.60;;;13.30;99.90;;;;;;5062633;28;20224;-83
2023/08/05 02:23:57;;;;;;;11.87;4.27;;;13.20;99.90;;;;;;5073810;28;20559;-82
2023/08/05 02:26:24;;;;;;;8.10;4.30;;;13.20;99.90;;;;;;5069011;28;20276;-82
2023/08/05 02:28:50;;;;;;;7.37;4.23;;;13.10;99.90;;;;;;5071738;28;20246;-83
2023/08/05 02:31:17;;;;;;;9.07;4.70;;;13.10;99.90;;;;;;5050097;28;20681;-82
2023/08/05 02:33:44;;;;;;;7.33;4.07;;;13.00;99.90;;;;;;5064478;28;20231;-82
2023/08/05 02:36:12;;;;;;;7.70;4.30;;;13.00;99.90;;;;;;5053417;28;20768;-82
2023/08/05 02:38:39;;;;;;;8.13;4.40;;;12.90;99.90;;;;;;5044427;28;21661;-82
2023/08/05 02:41:07;;;;;;;12.13;4.30;;;12.90;99.90;;;;;;5048444;28;20219;-82
2023/08/05 02:43:34;;;;;;;7.33;4.17;;;12.90;99.90;;;;;;5054593;28;20228;-82
2023/08/05 02:46:01;;;;;;;11.97;4.47;;;12.80;99.90;;;;;;5077234;28;20230;-82
2023/08/05 02:48:28;;;;;;;8.60;4.40;;;12.80;99.90;;;;;;5045944;28;20287;-83
2023/08/05 02:50:55;;;;;;;5.47;3.90;;;12.80;99.90;;;;;;5050584;28;20893;-82
2023/08/05 02:53:23;;;;;;;9.43;4.37;;;12.80;99.90;;;;;;5066802;28;20346;-83
2023/08/05 02:55:50;;;;;;;8.97;4.77;;;12.70;99.90;;;;;;5068222;28;20213;-82
2023/08/05 02:58:17;;;;;;;8.63;4.73;;;12.70;99.90;;;;;;5054966;28;20286;-83
2023/08/05 03:00:46;;;;;;;11.90;5.07;;;12.80;99.90;;;;;;5048692;28;20223;-83
2023/08/05 03:03:13;;;;;;;7.17;4.27;;;12.70;99.90;;;;;;5052484;28;21019;-82
2023/08/05 03:05:40;;;;;;;8.87;4.93;;;12.70;99.90;;;;;;5046455;28;20229;-83
2023/08/05 03:08:06;;;;;;;7.17;4.67;;;12.80;99.90;;;;;;5050097;28;20366;-83
2023/08/05 03:10:35;;;;;;;8.13;4.50;;;12.80;99.90;;;;;;5045928;28;20218;-83
2023/08/05 03:13:02;;;;;;;7.77;4.63;;;12.80;99.90;;;;;;5048206;28;20236;-82
2023/08/05 03:15:29;;;;;;;7.77;4.70;;;12.80;99.90;;;;;;5048523;28;20745;-82
2023/08/05 03:17:58;;;;;;;7.23;4.63;;;12.90;99.90;;;;;;5052100;28;20657;-82
2023/08/05 03:20:27;;;;;;;7.43;4.00;;;12.90;99.90;;;;;;5047617;28;20865;-82
2023/08/05 03:22:58;;;;;;;7.73;4.43;;;12.90;99.90;;;;;;5049187;28;20223;-83
2023/08/05 03:25:27;;;;;;;6.03;4.50;;;13.00;99.90;;;;;;5070269;28;20212;-81
2023/08/05 03:27:59;;;;;;;8.63;4.87;;;13.00;99.90;;;;;;5064477;28;20215;-82
2023/08/05 03:30:28;;;;;;;8.97;4.13;;;13.00;99.90;;;;;;5054878;28;20301;-82
2023/08/05 03:32:56;;;;;;;9.00;4.73;;;13.10;99.90;;;;;;5062972;28;20316;-82
2023/08/05 03:35:25;;;;;;;5.57;3.83;;;13.10;99.90;;;;;;5043242;28;20881;-82
2023/08/05 03:41:42;;;;;;;5.67;4.00;;;13.10;99.90;;;;;;5061903;28;20226;-83
2023/08/05 03:44:10;;;;;;;5.67;3.53;;;13.10;99.90;;;;;;5044511;28;20313;-84
2023/08/05 03:46:38;;;;;;;4.50;3.80;;;13.10;99.90;;;;;;5047752;28;20230;-83
2023/08/05 03:49:05;;;;;;;7.70;4.40;;;13.00;99.90;;;;;;5062010;28;20223;-82
2023/08/05 03:51:32;;;;;;;9.07;4.40;;;12.90;99.90;;;;;;5063573;28;20220;-83
2023/08/05 03:54:04;;;;;;;8.23;4.47;;;12.90;99.90;;;;;;5050370;28;20239;-83
2023/08/05 03:56:31;;;;;;;7.83;4.67;;;12.80;99.90;;;;;;5063298;28;20222;-82
2023/08/05 03:58:59;;;;;;;7.23;4.33;;;12.80;99.90;;;;;;5046254;28;20265;-83
2023/08/05 04:01:30;;;;;;;6.87;4.70;;;12.80;99.90;;;;;;5040840;28;20225;-83
2023/08/05 04:03:57;;;;;;;6.73;4.57;;;12.80;99.90;;;;;;5065480;28;21044;-82
2023/08/05 04:06:25;;;;;;;9.10;4.63;;;12.80;99.90;;;;;;5057359;28;20801;-83
2023/08/05 04:08:53;;;;;;;6.13;4.13;;;12.80;99.90;;;;;;5039904;28;20215;-82
2023/08/05 04:11:21;;;;;;;5.27;4.00;;;12.90;99.90;;;;;;5063018;28;20230;-83
2023/08/05 04:13:50;;;;;;;7.87;4.23;;;12.90;99.90;;;;;;5066105;28;20226;-84
2023/08/05 04:16:17;;;;;;;6.57;4.20;;;13.00;99.90;;;;;;5044048;28;20318;-83
2023/08/05 04:18:48;;;;;;;6.73;4.70;;;13.00;99.90;;;;;;5045903;28;20713;-83
2023/08/05 04:21:15;;;;;;;9.10;4.60;;;13.00;99.90;;;;;;5065336;28;20229;-83
2023/08/05 04:23:42;;;;;;;5.90;4.27;;;13.10;99.90;;;;;;5050025;28;20256;-84
2023/08/05 04:26:09;;;;;;;6.57;4.33;;;13.20;99.90;;;;;;5068322;28;20815;-83
2023/08/05 04:28:36;;;;;;;7.07;4.30;;;13.20;99.90;;;;;;5068077;28;20229;-84
2023/08/05 04:31:03;;;;;;;6.83;4.07;;;13.30;99.90;;;;;;5065788;28;20228;-83
2023/08/05 04:33:31;;;;;;;7.97;4.50;;;13.40;99.90;;;;;;5050385;28;20267;-82
2023/08/05 04:36:00;;;;;;;7.33;4.13;;;13.40;99.90;;;;;;5069880;28;20771;-82
2023/08/05 04:38:26;;;;;;;6.67;3.87;;;13.40;99.90;;;;;;5053530;28;20276;-82
2023/08/05 04:40:53;;;;;;;7.17;4.00;;;13.50;99.90;;;;;;5052098;28;20217;-82
2023/08/05 04:43:20;;;;;;;7.03;4.17;;;13.60;99.90;;;;;;5067810;28;20228;-83
2023/08/05 04:45:50;;;;;;;6.37;4.13;;;13.60;99.90;;;;;;5066519;28;20239;-81
2023/08/05 04:48:17;;;;;;;6.73;4.00;;;13.60;99.90;;;;;;5047409;28;20265;-81
2023/08/05 04:50:43;;;;;;;7.03;4.10;;;13.60;99.90;;;;;;5066548;28;20213;-82
2023/08/05 04:53:14;;;;;;;7.93;4.67;;;13.70;99.90;;;;;;5045402;28;20333;-82
2023/08/05 04:55:40;;;;;;;9.17;4.17;;;13.70;99.90;;;;;;5063348;28;20261;-82
2023/08/05 04:58:08;;;;;;;6.73;4.37;;;13.80;99.90;;;;;;5046914;28;20296;-82
2023/08/05 05:00:35;;;;;;;6.30;4.13;;;13.80;99.90;;;;;;5061426;28;20277;-83
2023/08/05 05:03:02;;;;;;;8.43;4.23;;;13.90;99.90;;;;;;5066133;28;20226;-83
2023/08/05 05:05:28;;;;;;;6.40;4.13;;;13.90;99.90;;;;;;5063769;28;20364;-82
2023/08/05 05:07:55;;;;;;;7.40;4.33;;;14.00;99.90;;;;;;5050635;28;20216;-82
2023/08/05 05:10:23;;;;;;;5.70;4.03;;;14.10;99.90;;;;;;5066588;28;20226;-83
2023/08/05 05:12:50;;;;;;;9.53;4.13;;;14.10;99.90;;;;;;5066907;28;20271;-82
2023/08/05 05:15:17;;;;;;;8.53;3.90;;;14.20;99.90;;;;;;5046993;28;20241;-82
2023/08/05 05:17:44;;;;;;;8.43;4.57;;;14.30;99.90;;;;;;5065736;28;20232;-82
2023/08/05 05:20:12;;;;;;;9.60;4.20;;;14.30;99.90;;;;;;5047894;28;20220;-83
2023/08/05 05:22:39;;;;;;;6.37;3.70;;;14.30;99.90;;;;;;5086285;23;20224;-92
2023/08/05 05:25:07;;;;;;;4.77;3.30;;;14.30;99.90;;;;;;5066761;28;20253;-92
2023/08/05 05:27:35;;;;;;;6.73;3.93;;;14.30;99.90;;;;;;5071230;28;20250;-92
2023/08/05 05:30:01;;;;;;;6.57;4.07;;;14.20;99.90;;;;;;5068660;28;20228;-92
2023/08/05 05:32:28;;;;;;;8.60;4.00;;;14.20;99.90;;;;;;5077164;28;20245;-92
2023/08/05 05:34:55;;;;;;;9.13;4.53;;;14.20;99.90;;;;;;5047623;28;20321;-92
2023/08/05 05:37:22;;;;;;;8.37;3.90;;;14.10;99.90;;;;;;5047863;28;20231;-92
2023/08/05 05:39:48;;;;;;;10.30;4.50;;;14.10;99.90;;;;;;5079821;28;20318;-92
2023/08/05 05:42:16;;;;;;;9.30;4.43;;;14.10;99.90;;;;;;5056367;28;20241;-92
2023/08/05 05:44:50;;;;;;;8.30;4.50;;;14.10;99.90;;;;;;5047366;28;20223;-93
2023/08/05 05:47:17;;;;;;;11.93;5.20;;;14.10;99.90;;;;;;5048027;28;20291;-93
2023/08/05 05:49:46;;;;;;;9.87;4.03;;;14.20;99.90;;;;;;5047622;28;20287;-92
2023/08/05 05:52:16;;;;;;;7.30;4.60;;;14.10;99.90;;;;;;5042234;28;20235;-92
2023/08/05 05:54:43;;;;;;;10.23;4.70;;;14.10;99.90;;;;;;5045001;28;20688;-92
2023/08/05 05:57:10;;;;;;;8.63;4.73;;;14.10;99.90;;;;;;5046961;28;20307;-92
2023/08/05 05:59:36;;;;;;;7.47;4.87;;;14.20;99.90;;;;;;5069317;28;20232;-92
2023/08/05 06:02:05;;;;;;;10.97;5.00;;;14.20;99.90;;;;;;5033418;28;20245;-94
2023/08/05 06:04:32;;;;;;;8.27;4.27;;;14.30;99.90;;;;;;5044048;28;20237;-94
2023/08/05 06:07:01;;;;;;;10.00;4.90;;;14.40;99.90;;;;;;5050319;28;20598;-92
2023/08/05 06:09:31;;;;;;;8.00;4.73;;;14.50;99.90;;;;;;5045491;28;20227;-93
2023/08/05 06:11:58;;;;;;;9.70;4.00;;;14.60;99.90;;;;;;5047789;28;20704;-92
2023/08/05 06:14:25;;;;;;;8.97;4.30;;;14.70;99.90;;;;;;5062689;28;20215;-93
2023/08/05 06:16:51;;;;;;;7.83;3.93;;;14.90;99.90;;;;;;5060978;28;20242;-92
2023/08/05 06:19:19;;;;;;;8.40;3.70;;;15.00;99.90;;;;;;5065712;28;20565;-92
2023/08/05 06:21:46;;;;;;;10.80;4.07;;;15.20;99.90;;;;;;5060799;28;21675;-93
2023/08/05 06:24:13;;;;;;;8.83;3.83;;;15.30;99.90;;;;;;5030152;28;20415;-92
2023/08/05 06:26:40;;;;;;;11.33;3.93;;;15.40;99.90;;;;;;5041610;28;20232;-92
2023/08/05 06:29:07;;;;;;;7.10;3.60;;;15.50;99.90;;;;;;5031010;28;20400;-93
2023/08/05 06:31:34;;;;;;;11.97;3.87;;;15.60;99.90;;;;;;5047422;28;20233;-93
2023/08/05 06:34:00;;;;;;;6.90;3.20;;;15.70;99.90;;;;;;5030436;28;20234;-92
2023/08/05 06:36:31;;;;;;;6.23;3.50;;;15.70;99.90;;;;;;5033207;28;20225;-93
2023/08/05 06:38:58;;;;;;;7.57;3.40;;;15.80;99.90;;;;;;5055221;28;20229;-93
2023/08/05 06:41:25;;;;;;;10.63;3.73;;;16.00;99.90;;;;;;5038665;28;20313;-93
2023/08/05 06:43:52;;;;;;;7.63;3.40;;;16.10;99.90;;;;;;5035625;28;20302;-93
2023/08/05 06:46:21;;;;;;;7.87;3.03;;;16.30;99.90;;;;;;5040826;28;20229;-91
2023/08/05 06:48:48;;;;;;;7.67;3.00;;;16.40;99.90;;;;;;5031648;28;20781;-91
2023/08/05 06:51:14;;;;;;;7.13;3.17;;;16.60;99.90;;;;;;5053459;28;20253;-93
2023/08/05 06:53:44;;;;;;;7.10;2.90;;;16.80;99.90;;;;;;5034818;28;20732;-93
2023/08/05 06:56:11;;;;;;;7.33;2.97;;;16.90;99.90;;;;;;5029948;28;20219;-93
2023/08/05 06:58:40;;;;;;;8.67;3.53;;;17.00;99.90;;;;;;5034548;28;20227;-93
2023/08/05 07:01:07;;;;;;;5.53;2.97;;;17.20;99.90;;;;;;5033012;28;20713;-93
2023/08/05 07:03:34;;;;;;;4.47;2.40;;;17.30;99.90;;;;;;5052376;28;20293;-93
2023/08/05 07:06:01;;;;;;;5.97;2.80;;;17.40;99.90;;;;;;5054484;28;20650;-94
2023/08/05 07:08:28;;;;;;;7.03;2.93;;;17.50;99.90;;;;;;5034338;28;20285;-95
2023/08/05 07:10:57;;;;;;;9.07;2.90;;;17.60;99.90;;;;;;5036566;28;20292;-94
2023/08/05 07:13:26;;;;;;;6.63;2.73;;;17.80;99.90;;;;;;5032452;28;20843;-93
2023/08/05 07:15:58;;;;;;;6.30;2.83;;;17.80;99.90;;;;;;5027824;28;20701;-94
2023/08/05 07:18:25;;;;;;;5.17;2.47;;;18.00;99.90;;;;;;5031878;28;20235;-94
2023/08/05 07:20:52;;;;;;;5.07;2.73;;;18.00;99.90;;;;;;5031837;28;21877;-94
2023/08/05 07:23:24;;;;;;;5.83;3.03;;;18.00;99.90;;;;;;5030089;28;20224;-94
2023/08/05 07:25:51;;;;;;;5.13;2.57;;;18.00;99.90;;;;;;5056445;28;20224;-95
2023/08/05 07:28:21;;;;;;;4.77;2.80;;;17.90;99.90;;;;;;5048744;28;20592;-95
2023/08/05 07:30:48;;;;;;;6.27;2.93;;;18.00;99.90;;;;;;5038900;28;20220;-94
2023/08/05 07:33:17;;;;;;;7.28;2.75;;;18.20;99.90;;;;;;5049486;28;20244;-93
2023/08/05 07:35:43;;;;;;;4.93;2.45;;;18.50;99.90;;;;;;5031088;28;20232;-92
2023/08/05 07:38:10;;;;;;;5.47;2.60;;;19.00;99.90;;;;;;5037819;28;20740;-92
2023/08/05 07:40:37;;;;;;;5.13;2.20;;;19.50;99.90;;;;;;5038416;28;20240;-91
2023/08/05 07:43:05;;;;;;;4.55;2.35;;;20.00;99.90;;;;;;5029015;28;20220;-91
2023/08/05 07:45:35;;;;;;;5.20;2.20;;;20.50;99.90;;;;;;5029517;28;20710;-92
2023/08/05 07:48:06;;;;;;;6.40;2.47;;;20.90;99.90;;;;;;5040568;28;20219;-90
2023/08/05 07:50:36;;;;;;;6.50;2.60;;;21.20;99.90;;;;;;5044662;28;20323;-94
2023/08/05 07:53:04;;;;;;;3.88;2.22;;;21.60;99.90;;;;;;5055729;28;20294;-95
2023/08/05 07:55:32;;;;;;;5.25;2.03;;;21.80;99.90;;;;;;5049936;28;20220;-92
2023/08/05 07:57:59;;;;;;;6.25;2.03;;;22.10;99.90;;;;;;5033372;28;20216;-94
2023/08/05 08:00:27;;;;;;;6.18;2.15;;;22.40;99.90;;;;;;5030169;28;20310;-92
2023/08/05 08:03:00;;;;;;;6.45;2.30;;;22.50;99.90;;;;;;5025338;28;20307;-93
2023/08/05 08:05:27;;;;;;;5.28;2.08;;;22.70;99.90;;;;;;5024530;28;20311;-93
2023/08/05 08:07:55;;;;;;;4.47;1.60;;;23.00;99.90;;;;;;5021376;28;20245;-92
2023/08/05 08:10:24;;;;;;;4.65;1.55;;;23.40;99.90;;;;;;5027858;28;20224;-92
2023/08/05 08:12:52;;;;;;;4.63;1.48;;;23.90;99.90;;;;;;5023172;28;20246;-92
2023/08/05 08:15:19;;;;;;;4.45;1.77;;;24.30;98.80;;;;;;5046034;28;20316;-93
2023/08/05 08:17:45;;;;;;;2.95;1.60;;;24.70;96.00;;;;;;5033896;28;20919;-93
2023/08/05 08:20:14;;;;;;;3.33;1.20;;;24.90;96.70;;;;;;5058033;28;20231;-94
2023/08/05 08:22:40;;;;;;;3.83;2.33;;;25.10;95.30;;;;;;5027544;28;20235;-93
2023/08/05 08:25:08;;;;;;;4.07;1.88;;;25.30;96.50;;;;;;5027219;28;20224;-93
2023/08/05 08:27:34;;;;;;;4.07;1.52;;;25.50;97.30;;;;;;5027189;28;20307;-92
2023/08/05 08:30:01;;;;;;;3.75;1.60;;;25.60;94.30;;;;;;5023924;28;20262;-93
2023/08/05 08:32:28;;;;;;;3.53;1.60;;;25.80;93.90;;;;;;5024445;28;20916;-93
2023/08/05 08:34:54;;;;;;;3.92;1.20;;;26.00;94.50;;;;;;5029287;28;20213;-93
2023/08/05 08:37:22;;;;;;;4.30;1.25;;;26.10;95.00;;;;;;5032646;28;20233;-93
2023/08/05 08:39:49;;;;;;;3.05;1.48;;;26.40;94.60;;;;;;5045713;28;20236;-93
2023/08/05 08:42:21;;;;;;;3.00;1.38;;;26.60;93.30;;;;;;5033622;28;20235;-94
2023/08/05 08:44:48;;;;;;;2.92;1.40;;;26.90;92.90;;;;;;5028463;28;20242;-93
2023/08/05 08:47:16;;;;;;;2.83;1.15;;;27.30;93.40;;;;;;5027441;28;20267;-93
2023/08/05 08:49:45;;;;;;;2.08;1.27;;;27.80;92.80;;;;;;5026428;28;20220;-93
2023/08/05 08:52:13;;;;;;;3.72;1.30;;;28.20;90.50;;;;;;5032986;28;20258;-94
2023/08/05 08:54:42;;;;;;;1.98;1.25;;;28.70;91.50;;;;;;5047906;28;20255;-93
2023/08/05 08:57:09;;;;;;;1.20;1.10;;;29.00;88.30;;;;;;5031088;28;20228;-93
2023/08/05 08:59:36;;;;;;;2.35;1.17;;;29.10;85.80;;;;;;5033196;28;20307;-93
2023/08/05 09:02:09;;;;;;;3.13;1.20;;;29.10;81.70;;;;;;5047971;28;20838;-93
2023/08/05 09:04:37;;;;;;;1.88;1.10;;;28.80;79.20;;;;;;5031290;28;20224;-93
2023/08/05 09:07:05;;;;;;;1.77;1.17;;;28.40;79.50;;;;;;5032737;28;20970;-93
2023/08/05 09:09:32;;;;;;;3.40;1.13;;;27.80;76.40;;;;;;5030366;28;20224;-93
2023/08/05 09:12:00;;;;;;;6.28;1.60;;;27.20;80.80;;;;;;5031647;28;20231;-94
2023/08/05 09:14:26;;;;;;;1.58;1.13;;;26.80;80.10;;;;;;5048332;28;20220;-94
2023/08/05 09:16:59;;;;;;;1.80;1.10;;;26.40;82.30;;;;;;5063026;28;20278;-93
2023/08/05 09:19:26;;;;;;;1.92;1.30;;;26.20;81.20;;;;;;5062785;28;20224;-93
2023/08/05 09:21:55;;;;;;;1.60;1.08;;;26.10;81.00;;;;;;5036984;28;20299;-93
2023/08/05 09:24:23;;;;;;;4.75;1.25;;;26.10;81.60;;;;;;5026717;28;20212;-93
2023/08/05 09:26:54;;;;;;;1.75;1.05;;;26.10;84.30;;;;;;5034550;28;20838;-93
2023/08/05 09:29:23;;;;;;;2.30;1.20;;;26.20;80.70;;;;;;5057040;28;20223;-93
2023/08/05 09:31:57;;;;;;;1.77;1.20;;;26.40;83.70;;;;;;5053022;28;20307;-93
2023/08/05 09:34:34;;;;;;;3.22;1.30;;;26.60;83.00;;;;;;5049434;28;20235;-93
2023/08/05 09:37:01;;;;;;;2.88;1.55;;;26.70;80.00;;;;;;5056703;28;20227;-93
2023/08/05 09:39:43;;;;;;;2.72;1.17;;;26.90;80.50;;;;;;5048782;28;20306;-93
2023/08/05 09:42:18;;;;;;;1.67;1.00;;;27.10;81.60;;;;;;5043010;28;20224;-94
2023/08/05 09:44:47;;;;;;;1.58;0.90;;;27.20;73.20;;;;;;5050372;28;20220;-93
2023/08/05 09:47:21;;;;;;;2.05;0.90;;;27.20;78.50;;;;;;5030330;28;20319;-95
2023/08/05 09:49:50;;;;;;;2.63;1.20;;;27.30;79.00;;;;;;5028997;28;20220;-94
2023/08/05 09:52:17;;;;;;;1.90;1.00;;;27.40;81.30;;;;;;5053264;28;20292;-94
2023/08/05 09:54:50;;;;;;;1.48;1.15;;;27.50;81.00;;;;;;5031797;28;20303;-94
2023/08/05 09:57:18;;;;;;;2.50;1.30;;;27.60;79.80;;;;;;5058584;28;20223;-94
2023/08/05 09:59:48;;;;;;;2.40;1.15;;;27.70;76.30;;;;;;5037166;28;20224;-93
2023/08/05 10:02:20;;;;;;;2.42;1.20;;;27.70;77.70;;;;;;5029835;28;20224;-93
2023/08/05 10:04:47;;;;;;;2.30;1.27;;;27.50;74.80;;;;;;5040654;28;20935;-93
2023/08/05 10:07:15;;;;;;;2.10;1.30;;;27.40;74.30;;;;;;5046902;28;20221;-93
2023/08/05 10:09:42;;;;;;;1.35;0.82;;;27.10;73.60;;;;;;5025811;28;20266;-92
2023/08/05 10:12:10;;;;;;;2.28;1.08;;;26.90;72.00;;;;;;5028730;28;20237;-93
2023/08/05 10:14:37;;;;;;;3.28;1.00;;;26.50;70.80;;;;;;5064699;28;20720;-93
2023/08/05 10:17:07;;;;;;;2.25;1.10;;;26.20;73.00;;;;;;5029834;28;20231;-93
2023/08/05 10:19:34;;;;;;;2.00;1.10;;;25.90;76.10;;;;;;5021487;28;20233;-93
2023/08/05 10:22:08;;;;;;;2.15;1.25;;;25.70;76.50;;;;;;5028765;28;20230;-93
2023/08/05 10:24:52;;;;;;;2.53;1.05;;;25.60;78.20;;;;;;5042840;28;20231;-93
2023/08/05 10:27:34;;;;;;;2.75;1.33;;;25.60;78.60;;;;;;5030505;28;20302;-93
2023/08/05 10:30:06;;;;;;;2.40;1.30;;;25.60;77.20;;;;;;5035518;28;20220;-93
2023/08/05 10:32:35;;;;;;;1.98;1.17;;;25.60;78.90;;;;;;5045296;28;20837;-92
2023/08/05 10:35:24;;;;;;;1.98;1.35;;;25.70;80.70;;;;;;5049880;28;20262;-93
2023/08/05 10:38:04;;;;;;;1.77;1.15;;;25.80;81.50;;;;;;5045924;28;20311;-93
2023/08/05 10:40:41;;;;;;;2.00;1.27;;;25.90;81.00;;;;;;5060556;28;20307;-93
2023/08/05 10:43:08;;;;;;;2.67;1.30;;;25.90;77.90;;;;;;5030952;28;20231;-93
2023/08/05 10:45:35;;;;;;;3.60;1.50;;;25.90;80.00;;;;;;5033792;28;20276;-93
2023/08/05 10:48:10;;;;;;;2.17;1.35;;;25.90;80.00;;;;;;5030146;28;20242;-93
2023/08/05 10:50:37;;;;;;;2.20;1.20;;;26.00;79.20;;;;;;5043909;28;20223;-93
2023/08/05 10:53:06;;;;;;;1.80;1.25;;;26.00;78.60;;;;;;5030263;28;20231;-94
2023/08/05 10:55:46;;;;;;;2.50;1.20;;;26.10;79.00;;;;;;5032538;28;20223;-93
2023/08/05 10:58:13;;;;;;;1.77;1.23;;;26.20;78.10;;;;;;5043546;28;20223;-93
2023/08/05 11:00:41;;;;;;;2.50;1.20;;;26.20;77.40;;;;;;5047045;28;20226;-93
2023/08/05 11:03:32;;;;;;;2.63;1.30;;;26.30;77.90;;;;;;5029052;28;20222;-94
2023/08/05 11:06:03;;;;;;;2.13;1.20;;;26.60;78.40;;;;;;5052117;28;20780;-93
2023/08/05 11:08:31;;;;;;;1.40;1.30;;;27.00;77.60;;;;;;5061832;28;21013;-93
2023/08/05 11:11:01;;;;;;;2.75;1.20;;;27.30;75.60;;;;;;5035426;28;20227;-94
2023/08/05 11:13:31;;;;;;;1.98;1.02;;;27.50;74.50;;;;;;5034610;28;20232;-93
2023/08/05 11:16:17;;;;;;;3.28;1.65;;;27.70;73.80;;;;;;5026853;28;20944;-94
2023/08/05 11:18:46;;;;;;;2.25;1.00;;;27.60;73.50;;;;;;5045043;28;20220;-93
2023/08/05 11:21:15;;;;;;;3.72;1.35;;;27.50;73.40;;;;;;5026512;28;20242;-93
2023/08/05 11:23:44;;;;;;;1.58;1.10;;;27.50;73.60;;;;;;5034312;28;20238;-93
2023/08/05 11:26:12;;;;;;;1.67;1.33;;;27.40;74.00;;;;;;5029690;28;20220;-93
2023/08/05 11:28:43;;;;;;;2.25;1.25;;;27.30;74.60;;;;;;5040631;28;20230;-93
2023/08/05 11:31:10;;;;;;;1.90;1.13;;;27.20;71.80;;;;;;5050130;28;20220;-93
2023/08/05 11:33:37;;;;;;;2.15;1.30;;;27.10;74.60;;;;;;5028562;28;20232;-93
2023/08/05 11:36:05;;;;;;;1.95;1.23;;;27.10;74.90;;;;;;5044302;28;20248;-93
2023/08/05 11:38:32;;;;;;;2.67;1.10;;;27.10;73.00;;;;;;5035865;28;20231;-93
2023/08/05 11:40:59;;;;;;;2.10;1.20;;;27.10;71.90;;;;;;5039059;28;20224;-93
2023/08/05 11:43:25;;;;;;;2.25;1.20;;;27.30;71.90;;;;;;5029094;28;20235;-93
2023/08/05 11:45:55;;;;;;;2.33;1.05;;;27.30;71.00;;;;;;5028624;28;20277;-93
2023/08/05 11:48:23;;;;;;;2.17;1.17;;;27.50;71.10;;;;;;5022107;28;20221;-93
2023/08/05 11:50:51;;;;;;;1.55;1.10;;;27.70;71.60;;;;;;5047155;28;20594;-93
2023/08/05 11:53:20;;;;;;;2.15;1.02;;;28.00;71.40;;;;;;5027275;28;20307;-94
2023/08/05 11:55:47;;;;;;;1.92;1.20;;;28.30;69.10;;;;;;5047065;28;20230;-93
2023/08/05 11:58:14;;;;;;;1.45;0.93;;;28.40;66.80;;;;;;5048337;28;20224;-93
2023/08/05 12:00:48;;;;;;;3.53;1.40;;;28.40;67.30;;;;;;5049101;28;20224;-93
2023/08/05 12:03:15;;;;;;;2.53;1.08;;;28.30;66.30;;;;;;5028452;28;20273;-93
2023/08/05 12:05:43;;;;;;;3.08;1.38;;;28.10;64.60;;;;;;5029369;28;20225;-94
2023/08/05 12:08:10;;;;;;;1.77;1.10;;;27.80;64.80;;;;;;5045950;28;20231;-94
2023/08/05 12:10:38;;;;;;;1.85;1.00;;;27.40;65.30;;;;;;5029600;28;20223;-93
2023/08/05 12:13:06;;;;;;;2.35;1.20;;;27.00;66.00;;;;;;5028811;28;20236;-93
2023/08/05 12:15:33;;;;;;;2.60;1.10;;;26.60;68.50;;;;;;5028846;28;20220;-93
2023/08/05 12:18:02;;;;;;;1.55;1.00;;;26.50;69.60;;;;;;5022594;28;20235;-94
2023/08/05 12:20:30;;;;;;;2.17;1.20;;;26.40;69.20;;;;;;5036047;28;20229;-93
2023/08/05 12:22:58;;;;;;;3.70;1.67;;;26.20;68.10;;;;;;5029857;28;20231;-93
2023/08/05 12:25:26;;;;;;;1.77;1.08;;;26.10;69.80;;;;;;5025281;28;20231;-93
2023/08/05 12:27:54;;;;;;;2.42;1.40;;;25.90;68.90;;;;;;5029200;28;20220;-94
2023/08/05 12:30:22;;;;;;;1.30;1.20;;;25.80;71.40;;;;;;5046527;28;20854;-93
2023/08/05 12:32:48;;;;;;;1.95;0.98;;;25.70;71.50;;;;;;5031412;28;20228;-93
2023/08/05 12:35:15;;;;;;;2.78;1.13;;;25.80;71.30;;;;;;5047400;28;20303;-93
2023/08/05 12:37:42;;;;;;;2.15;1.40;;;25.80;70.50;;;;;;5034247;28;20242;-93
2023/08/05 12:40:11;;;;;;;3.03;1.30;;;25.80;68.90;;;;;;5033033;28;20319;-93
2023/08/05 12:42:38;;;;;;;1.58;1.00;;;25.80;71.20;;;;;;5049640;28;20781;-94
2023/08/05 12:45:07;;;;;;;1.67;1.08;;;25.80;71.00;;;;;;5031490;28;20303;-93
2023/08/05 12:47:34;;;;;;;1.48;1.15;;;25.70;70.50;;;;;;5032845;28;20884;-93
2023/08/05 12:50:02;;;;;;;2.67;1.15;;;25.70;68.90;;;;;;5032646;28;20224;-93
2023/08/05 12:52:29;;;;;;;1.95;1.35;;;25.60;70.70;;;;;;5044233;28;20270;-93
2023/08/05 12:54:59;;;;;;;1.80;1.00;;;25.70;71.10;;;;;;5030207;28;20410;-93